Time;durP1;ratioP1;P1;durP2;ratioP2;P2;SDS_P1;SDS_P2;PMS_P1;PMS_P2;Temp;Humidity;BMP_temperature;BMP_pressure;BME280_temperature;BME280_humidity;BME280_pressure;Samples;Min_cycle;Max_cycle;Signal;HPM_P1;HPM_P2
2022/11/26 00:01:43;;;;;;;0.70;0.70;;;6.10;99.90;;;;;;4955924;28;20052;-79
2022/11/26 00:04:09;;;;;;;0.70;0.70;;;6.20;99.90;;;;;;4964729;28;20390;-79
2022/11/26 00:06:43;;;;;;;0.70;0.70;;;6.10;99.90;;;;;;4978141;28;20051;-79
2022/11/26 00:09:17;;;;;;;0.70;0.70;;;6.20;99.90;;;;;;4974554;28;20052;-79
2022/11/26 00:11:43;;;;;;;0.70;0.70;;;6.30;99.90;;;;;;4954027;28;20052;-80
2022/11/26 00:14:14;;;;;;;0.70;0.70;;;6.30;99.90;;;;;;4939274;28;20087;-79
2022/11/26 00:16:40;;;;;;;0.70;0.70;;;6.10;99.90;;;;;;4976704;28;20070;-79
2022/11/26 00:19:06;;;;;;;0.70;0.70;;;6.40;99.90;;;;;;4945278;28;20055;-79
2022/11/26 00:21:36;;;;;;;0.60;0.60;;;6.20;99.90;;;;;;4965458;28;20104;-79
2022/11/26 00:24:02;;;;;;;0.70;0.70;;;6.10;99.90;;;;;;4958444;28;20782;-79
2022/11/26 00:26:28;;;;;;;0.70;0.70;;;6.30;99.90;;;;;;4984761;28;20040;-79
2022/11/26 00:29:04;;;;;;;0.60;0.60;;;6.30;99.90;;;;;;4959335;28;20056;-79
2022/11/26 00:31:30;;;;;;;0.70;0.70;;;6.10;99.90;;;;;;4975802;28;20048;-78
2022/11/26 00:33:56;;;;;;;0.70;0.70;;;6.20;99.90;;;;;;4980142;28;20044;-79
2022/11/26 00:36:28;;;;;;;0.70;0.70;;;6.10;99.90;;;;;;4954365;28;20632;-79
2022/11/26 00:39:00;;;;;;;0.60;0.60;;;6.20;99.90;;;;;;4982821;28;20052;-79
2022/11/26 00:41:30;;;;;;;0.70;0.70;;;6.10;99.90;;;;;;4951639;28;20897;-79
2022/11/26 00:43:57;;;;;;;0.70;0.70;;;6.00;99.90;;;;;;4980771;28;20828;-79
2022/11/26 00:46:23;;;;;;;0.70;0.70;;;6.10;99.90;;;;;;4973393;28;20084;-79
2022/11/26 00:48:49;;;;;;;0.70;0.70;;;6.20;99.90;;;;;;4981350;28;20423;-79
2022/11/26 00:51:27;;;;;;;0.70;0.70;;;6.10;99.90;;;;;;4978236;28;20048;-79
2022/11/26 00:53:57;;;;;;;0.70;0.70;;;6.10;99.90;;;;;;4958495;28;20055;-79
2022/11/26 00:56:23;;;;;;;0.65;0.65;;;6.20;99.90;;;;;;4980340;28;20094;-79
2022/11/26 00:58:50;;;;;;;0.68;0.68;;;6.20;99.90;;;;;;4968509;28;21062;-79
2022/11/26 01:01:19;;;;;;;0.70;0.70;;;6.10;99.90;;;;;;4964300;28;20633;-79
2022/11/26 01:03:45;;;;;;;0.70;0.70;;;6.10;99.90;;;;;;4963377;28;20045;-79
2022/11/26 01:06:29;;;;;;;0.70;0.70;;;6.10;99.90;;;;;;4980112;28;20055;-79
2022/11/26 01:08:54;;;;;;;0.70;0.70;;;6.00;99.90;;;;;;4964993;28;20858;-79
2022/11/26 01:11:22;;;;;;;0.70;0.70;;;5.90;99.90;;;;;;4980458;28;20566;-79
2022/11/26 01:13:49;;;;;;;0.70;0.70;;;5.90;99.90;;;;;;4967787;28;20439;-80
2022/11/26 01:16:25;;;;;;;0.70;0.70;;;6.00;99.90;;;;;;4966525;28;20565;-79
2022/11/26 01:18:53;;;;;;;0.70;0.70;;;6.00;99.90;;;;;;4979839;28;20082;-79
2022/11/26 01:21:19;;;;;;;0.70;0.70;;;6.00;99.90;;;;;;4982985;28;20124;-79
2022/11/26 01:23:45;;;;;;;0.70;0.70;;;6.00;99.90;;;;;;4985644;28;20363;-79
2022/11/26 01:26:22;;;;;;;0.70;0.70;;;5.90;99.90;;;;;;4967380;28;20052;-79
2022/11/26 01:28:48;;;;;;;0.70;0.70;;;6.00;99.90;;;;;;4975293;28;20575;-79
2022/11/26 01:31:16;;;;;;;0.70;0.70;;;5.90;99.90;;;;;;4993527;28;20414;-79
2022/11/26 01:33:43;;;;;;;0.70;0.70;;;5.90;99.90;;;;;;4960969;28;20080;-79
2022/11/26 01:36:17;;;;;;;0.70;0.70;;;6.00;99.90;;;;;;4966401;28;20105;-80
2022/11/26 01:38:43;;;;;;;0.70;0.70;;;5.90;99.90;;;;;;4959306;28;20505;-80
2022/11/26 01:41:32;;;;;;;0.70;0.70;;;6.00;99.90;;;;;;4958188;28;20052;-80
2022/11/26 01:43:59;;;;;;;0.70;0.70;;;5.90;99.90;;;;;;4964731;28;20084;-79
2022/11/26 01:46:28;;;;;;;0.70;0.70;;;5.90;99.90;;;;;;4962540;28;20125;-79
2022/11/26 01:49:13;;;;;;;0.70;0.70;;;5.90;99.90;;;;;;4978105;28;20068;-80
2022/11/26 01:51:39;;;;;;;0.70;0.70;;;5.90;99.90;;;;;;4969375;28;20289;-80
2022/11/26 01:54:07;;;;;;;0.60;0.60;;;5.80;99.90;;;;;;4973899;28;20801;-80
2022/11/26 01:56:36;;;;;;;0.70;0.70;;;5.80;99.90;;;;;;4970001;28;20082;-80
2022/11/26 01:59:06;;;;;;;0.70;0.70;;;5.90;99.90;;;;;;4970942;28;20586;-80
2022/11/26 02:01:33;;;;;;;0.70;0.70;;;5.80;99.90;;;;;;4955460;28;20461;-80
2022/11/26 02:04:22;;;;;;;0.70;0.70;;;5.80;99.90;;;;;;4959881;28;20525;-80
2022/11/26 02:06:49;;;;;;;0.70;0.70;;;5.80;99.90;;;;;;4971749;28;20905;-80
2022/11/26 02:09:16;;;;;;;0.70;0.70;;;5.90;99.90;;;;;;4961775;28;20048;-80
2022/11/26 02:11:43;;;;;;;0.70;0.70;;;5.80;99.90;;;;;;4956104;28;20869;-80
2022/11/26 02:14:21;;;;;;;0.70;0.70;;;5.70;99.90;;;;;;4959491;28;20879;-80
2022/11/26 02:17:08;;;;;;;0.70;0.70;;;5.80;99.90;;;;;;4960741;28;20060;-80
2022/11/26 02:19:49;;;;;;;0.70;0.70;;;5.70;99.90;;;;;;4964230;28;21079;-80
2022/11/26 02:22:34;;;;;;;0.70;0.70;;;5.60;99.90;;;;;;4963464;28;20075;-80
2022/11/26 02:25:00;;;;;;;0.70;0.70;;;5.60;99.90;;;;;;4957651;28;20138;-80
2022/11/26 02:27:29;;;;;;;0.70;0.70;;;5.50;99.90;;;;;;4951451;28;20420;-80
2022/11/26 02:30:05;;;;;;;0.70;0.70;;;5.30;99.90;;;;;;4957150;28;20511;-80
2022/11/26 02:32:40;;;;;;;0.70;0.70;;;5.20;99.90;;;;;;4950775;28;20381;-80
2022/11/26 02:35:15;;;;;;;0.70;0.70;;;5.20;99.90;;;;;;4960066;28;20564;-80
2022/11/26 02:37:47;;;;;;;0.73;0.73;;;5.30;99.90;;;;;;4956062;28;20064;-80
2022/11/26 02:40:13;;;;;;;0.70;0.70;;;5.20;99.90;;;;;;4958447;28;20968;-80
2022/11/26 02:42:39;;;;;;;0.70;0.70;;;5.10;99.90;;;;;;4964607;28;20607;-80
2022/11/26 02:45:15;;;;;;;0.70;0.70;;;5.30;99.90;;;;;;4959171;28;20811;-80
2022/11/26 02:47:44;;;;;;;0.70;0.70;;;5.20;99.90;;;;;;4939218;28;20451;-80
2022/11/26 02:50:17;;;;;;;0.70;0.70;;;5.20;99.90;;;;;;4955892;28;20809;-80
2022/11/26 02:52:44;;;;;;;0.70;0.70;;;5.20;99.90;;;;;;4980102;28;20151;-80
2022/11/26 02:55:12;;;;;;;0.70;0.70;;;5.30;99.90;;;;;;4958165;28;20052;-80
2022/11/26 02:57:45;;;;;;;0.70;0.70;;;5.20;99.90;;;;;;4955177;28;20637;-80
2022/11/26 03:00:12;;;;;;;0.70;0.70;;;5.00;99.90;;;;;;4955231;28;20052;-80
2022/11/26 03:02:49;;;;;;;0.70;0.70;;;5.10;99.90;;;;;;4957795;28;20052;-80
2022/11/26 03:05:17;;;;;;;0.70;0.70;;;5.00;99.90;;;;;;4957912;28;20579;-80
2022/11/26 03:07:47;;;;;;;0.70;0.70;;;5.20;99.90;;;;;;4955827;28;20845;-80
2022/11/26 03:10:13;;;;;;;0.70;0.70;;;5.20;99.90;;;;;;4952745;28;20048;-80
2022/11/26 03:12:39;;;;;;;0.60;0.60;;;5.10;99.90;;;;;;4953806;28;20052;-80
2022/11/26 03:15:06;;;;;;;0.70;0.70;;;5.20;99.90;;;;;;4952188;28;20441;-80
2022/11/26 03:17:32;;;;;;;0.70;0.70;;;5.20;99.90;;;;;;4951478;28;20566;-80
2022/11/26 03:19:58;;;;;;;0.70;0.70;;;5.00;99.90;;;;;;4955435;28;20390;-80
2022/11/26 03:22:23;;;;;;;0.68;0.68;;;5.10;99.90;;;;;;4952751;28;20046;-80
2022/11/26 03:24:50;;;;;;;0.60;0.60;;;5.10;99.90;;;;;;4958894;28;20747;-80
2022/11/26 03:27:15;;;;;;;0.70;0.70;;;5.10;99.90;;;;;;4980505;28;20517;-80
2022/11/26 03:29:41;;;;;;;0.70;0.70;;;4.90;99.90;;;;;;4976111;28;20056;-80
2022/11/26 03:32:07;;;;;;;0.60;0.60;;;5.10;99.90;;;;;;4959661;28;20188;-80
2022/11/26 03:34:33;;;;;;;0.60;0.60;;;4.90;99.90;;;;;;4964818;28;20512;-80
2022/11/26 03:36:59;;;;;;;0.70;0.70;;;4.80;99.90;;;;;;4947289;28;20052;-80
2022/11/26 03:39:24;;;;;;;0.70;0.70;;;4.90;99.90;;;;;;4977058;28;20582;-80
2022/11/26 03:41:50;;;;;;;0.70;0.70;;;4.60;99.90;;;;;;4960277;28;21019;-80
2022/11/26 03:44:16;;;;;;;0.70;0.70;;;4.70;99.90;;;;;;4965988;28;20052;-80
2022/11/26 03:46:41;;;;;;;0.70;0.70;;;4.60;99.90;;;;;;4965061;28;20620;-80
2022/11/26 03:49:07;;;;;;;0.70;0.70;;;4.50;99.90;;;;;;4963497;28;20533;-80
2022/11/26 03:51:33;;;;;;;0.70;0.70;;;4.50;99.90;;;;;;4963494;28;20755;-80
2022/11/26 03:53:59;;;;;;;0.70;0.70;;;4.40;99.90;;;;;;4979192;28;20040;-80
2022/11/26 03:56:25;;;;;;;0.70;0.70;;;4.50;99.90;;;;;;4960190;28;20055;-80
2022/11/26 03:58:50;;;;;;;0.70;0.70;;;4.40;99.90;;;;;;4956497;28;20780;-80
2022/11/26 04:01:16;;;;;;;0.70;0.70;;;4.30;99.90;;;;;;4957495;28;20071;-80
2022/11/26 04:03:42;;;;;;;0.70;0.70;;;4.20;99.90;;;;;;4962392;28;20155;-80
2022/11/26 04:06:08;;;;;;;0.70;0.70;;;4.30;99.90;;;;;;4961438;28;20063;-80
2022/11/26 04:08:34;;;;;;;0.70;0.70;;;4.30;99.90;;;;;;4955261;28;20434;-80
2022/11/26 04:10:59;;;;;;;0.70;0.70;;;4.20;99.90;;;;;;4964907;28;20150;-80
2022/11/26 04:13:25;;;;;;;0.70;0.70;;;4.30;99.90;;;;;;4955577;28;20048;-80
2022/11/26 04:16:09;;;;;;;0.70;0.70;;;4.40;99.90;;;;;;4946730;28;20167;-80
2022/11/26 04:18:35;;;;;;;0.70;0.70;;;4.30;99.90;;;;;;4974993;28;20476;-80
2022/11/26 04:21:01;;;;;;;0.70;0.70;;;4.50;99.90;;;;;;4956647;28;20418;-80
2022/11/26 04:23:27;;;;;;;0.70;0.70;;;4.40;99.90;;;;;;4956515;28;20048;-80
2022/11/26 04:25:52;;;;;;;0.70;0.70;;;4.50;99.90;;;;;;4959577;28;20535;-80
2022/11/26 04:28:18;;;;;;;0.70;0.70;;;4.50;99.90;;;;;;4956412;28;20188;-80
2022/11/26 04:30:44;;;;;;;0.70;0.70;;;4.60;99.90;;;;;;4945550;28;20044;-80
2022/11/26 04:33:10;;;;;;;0.70;0.70;;;4.60;99.90;;;;;;4959288;28;20137;-80
2022/11/26 04:35:36;;;;;;;0.70;0.70;;;4.40;99.90;;;;;;4943719;28;20048;-80
2022/11/26 04:38:02;;;;;;;0.70;0.70;;;4.50;99.90;;;;;;4964909;28;20618;-80
2022/11/26 04:40:28;;;;;;;0.70;0.70;;;4.60;99.90;;;;;;4955247;28;20721;-80
2022/11/26 04:42:54;;;;;;;0.70;0.70;;;4.50;99.90;;;;;;4956737;28;20063;-80
2022/11/26 04:45:19;;;;;;;0.70;0.70;;;4.50;99.90;;;;;;4963510;28;20466;-80
2022/11/26 04:47:45;;;;;;;0.70;0.70;;;4.50;99.90;;;;;;4944342;28;20220;-80
2022/11/26 04:50:12;;;;;;;0.70;0.70;;;4.50;99.90;;;;;;4958973;28;20500;-80
2022/11/26 04:52:38;;;;;;;0.70;0.70;;;4.60;99.90;;;;;;4965810;28;20045;-80
2022/11/26 04:55:04;;;;;;;0.70;0.70;;;4.80;99.90;;;;;;4933611;28;20559;-80
2022/11/26 04:57:30;;;;;;;0.70;0.70;;;4.50;99.90;;;;;;4956053;28;20178;-80
2022/11/26 04:59:56;;;;;;;0.70;0.70;;;4.60;99.90;;;;;;4979930;28;20048;-80
2022/11/26 05:02:21;;;;;;;0.70;0.70;;;4.50;99.90;;;;;;4960738;28;20048;-80
2022/11/26 05:04:47;;;;;;;0.70;0.70;;;4.40;99.90;;;;;;4963102;28;20076;-81
2022/11/26 05:07:13;;;;;;;0.70;0.70;;;4.50;99.90;;;;;;4957169;28;20038;-81
2022/11/26 05:09:39;;;;;;;0.70;0.70;;;4.70;99.90;;;;;;4941566;28;20052;-80
2022/11/26 05:12:05;;;;;;;0.70;0.70;;;4.70;99.90;;;;;;4956513;28;20056;-80
2022/11/26 05:14:31;;;;;;;0.60;0.60;;;5.00;99.90;;;;;;4960149;28;20052;-80
2022/11/26 05:16:57;;;;;;;0.70;0.70;;;5.00;99.90;;;;;;4961383;28;20053;-81
2022/11/26 05:19:24;;;;;;;0.65;0.65;;;5.00;99.90;;;;;;4963336;28;20135;-81
2022/11/26 05:21:49;;;;;;;0.65;0.65;;;5.00;99.90;;;;;;4959467;28;20851;-80
2022/11/26 05:24:15;;;;;;;0.70;0.70;;;5.10;99.90;;;;;;4935078;28;20055;-80
2022/11/26 05:26:41;;;;;;;0.70;0.70;;;5.20;99.90;;;;;;4938621;28;20068;-81
2022/11/26 05:29:07;;;;;;;0.70;0.70;;;5.20;99.90;;;;;;4939695;28;20063;-81
2022/11/26 05:31:32;;;;;;;0.70;0.70;;;5.20;99.90;;;;;;4936117;28;20373;-81
2022/11/26 05:33:58;;;;;;;0.70;0.70;;;5.30;99.90;;;;;;4951124;28;20048;-81
2022/11/26 05:36:24;;;;;;;0.70;0.70;;;5.30;99.90;;;;;;4965414;28;20561;-81
2022/11/26 05:38:50;;;;;;;0.70;0.70;;;5.40;99.90;;;;;;4962213;28;20106;-81
2022/11/26 05:41:16;;;;;;;0.70;0.70;;;5.30;99.90;;;;;;4946347;28;20056;-81
2022/11/26 05:43:43;;;;;;;0.70;0.70;;;5.30;99.90;;;;;;4955569;28;20564;-81
2022/11/26 05:46:08;;;;;;;0.70;0.70;;;5.30;99.90;;;;;;4948221;28;20052;-81
2022/11/26 05:48:34;;;;;;;0.80;0.80;;;5.40;99.90;;;;;;4954029;28;20558;-81
2022/11/26 05:51:01;;;;;;;0.63;0.63;;;5.30;99.90;;;;;;4941152;28;20558;-81
2022/11/26 05:53:27;;;;;;;0.70;0.70;;;5.30;99.90;;;;;;4956076;28;20113;-81
2022/11/26 05:55:53;;;;;;;0.70;0.70;;;5.50;99.90;;;;;;4958416;28;20048;-81
2022/11/26 05:58:19;;;;;;;0.63;0.63;;;5.40;99.90;;;;;;4962910;28;20867;-81
2022/11/26 06:00:45;;;;;;;0.60;0.60;;;5.40;99.90;;;;;;4954448;28;20049;-81
2022/11/26 06:03:10;;;;;;;0.70;0.70;;;5.40;99.90;;;;;;4954820;28;20048;-81
2022/11/26 06:05:36;;;;;;;0.65;0.65;;;5.40;99.90;;;;;;4938413;28;20045;-81
2022/11/26 06:08:02;;;;;;;0.70;0.70;;;5.30;99.90;;;;;;4952172;28;20383;-81
2022/11/26 06:10:27;;;;;;;0.60;0.60;;;5.40;99.90;;;;;;4957658;28;20044;-81
2022/11/26 06:12:53;;;;;;;0.70;0.70;;;5.30;99.90;;;;;;4952118;28;20049;-81
2022/11/26 06:15:19;;;;;;;0.70;0.70;;;5.30;99.90;;;;;;4937739;28;20041;-82
2022/11/26 06:17:45;;;;;;;0.70;0.70;;;5.20;99.90;;;;;;4933126;28;20041;-82
2022/11/26 06:20:12;;;;;;;0.68;0.68;;;5.20;99.90;;;;;;4951572;28;20102;-81
2022/11/26 06:22:39;;;;;;;0.70;0.70;;;5.00;99.90;;;;;;4948251;28;20045;-81
2022/11/26 06:25:07;;;;;;;0.80;0.80;;;5.10;99.90;;;;;;4962326;28;20037;-81
2022/11/26 06:27:34;;;;;;;0.80;0.80;;;4.90;99.90;;;;;;4940837;28;20040;-81
2022/11/26 06:30:00;;;;;;;0.70;0.70;;;4.80;99.90;;;;;;4963072;28;20912;-81
2022/11/26 06:32:27;;;;;;;0.70;0.70;;;4.70;99.90;;;;;;4972632;28;20044;-82
2022/11/26 06:34:53;;;;;;;0.70;0.70;;;4.70;99.90;;;;;;4956475;28;20059;-81
2022/11/26 06:37:18;;;;;;;0.70;0.70;;;4.80;99.90;;;;;;4938758;28;20060;-82
2022/11/26 06:39:44;;;;;;;0.70;0.70;;;4.80;99.90;;;;;;4963600;28;20110;-82
2022/11/26 06:42:10;;;;;;;0.70;0.70;;;5.00;99.90;;;;;;4955556;28;20090;-82
2022/11/26 06:44:36;;;;;;;0.70;0.70;;;5.10;99.90;;;;;;4958446;28;20490;-81
2022/11/26 06:47:02;;;;;;;0.70;0.70;;;5.30;99.90;;;;;;4956331;28;20055;-82
2022/11/26 06:49:27;;;;;;;0.60;0.60;;;5.20;99.90;;;;;;4955445;28;20371;-82
2022/11/26 06:51:54;;;;;;;0.70;0.70;;;5.30;99.90;;;;;;4956852;28;20044;-81
2022/11/26 06:54:19;;;;;;;0.60;0.60;;;5.40;99.90;;;;;;4954510;28;20787;-81
2022/11/26 06:56:45;;;;;;;0.60;0.60;;;5.40;99.90;;;;;;4935311;28;20033;-82
2022/11/26 06:59:11;;;;;;;0.70;0.70;;;5.40;99.90;;;;;;4947952;28;20064;-83
2022/11/26 07:01:38;;;;;;;0.70;0.70;;;5.40;99.90;;;;;;4936392;28;20044;-82
2022/11/26 07:04:04;;;;;;;0.70;0.70;;;5.60;99.90;;;;;;4938259;28;20477;-81
2022/11/26 07:06:31;;;;;;;0.70;0.70;;;5.50;99.90;;;;;;4931376;28;20278;-82
2022/11/26 07:09:03;;;;;;;0.70;0.70;;;5.40;99.90;;;;;;4959862;28;20573;-82
2022/11/26 07:11:29;;;;;;;0.60;0.60;;;5.60;99.90;;;;;;4954786;28;20368;-82
2022/11/26 07:13:55;;;;;;;0.60;0.60;;;5.60;99.90;;;;;;4954043;28;20456;-82
2022/11/26 07:16:21;;;;;;;0.70;0.70;;;5.50;99.90;;;;;;4957083;28;20467;-82
2022/11/26 07:18:49;;;;;;;0.70;0.70;;;5.70;99.90;;;;;;4968020;28;20127;-82
2022/11/26 07:21:16;;;;;;;0.70;0.70;;;5.60;99.90;;;;;;4951194;28;20056;-82
2022/11/26 07:23:42;;;;;;;0.70;0.70;;;5.60;99.90;;;;;;4960098;28;20083;-81
2022/11/26 07:26:10;;;;;;;0.70;0.70;;;5.70;99.90;;;;;;4974834;28;20336;-82
2022/11/26 07:28:36;;;;;;;0.70;0.70;;;5.70;99.90;;;;;;4954601;28;20413;-80
2022/11/26 07:31:04;;;;;;;0.70;0.70;;;5.60;99.90;;;;;;4950878;28;20065;-81
2022/11/26 07:33:32;;;;;;;0.70;0.70;;;5.80;99.90;;;;;;4956965;28;20396;-82
2022/11/26 07:35:59;;;;;;;0.70;0.70;;;5.90;99.90;;;;;;4958511;28;20767;-82
2022/11/26 07:38:26;;;;;;;0.70;0.70;;;5.80;99.90;;;;;;4943912;28;20044;-83
2022/11/26 07:40:51;;;;;;;0.70;0.70;;;5.80;99.90;;;;;;4958489;28;20493;-84
2022/11/26 07:43:17;;;;;;;0.70;0.70;;;5.90;99.90;;;;;;4934491;28;20071;-83
2022/11/26 07:45:43;;;;;;;0.70;0.70;;;5.90;99.90;;;;;;4925429;28;20044;-82
2022/11/26 07:48:08;;;;;;;0.70;0.70;;;5.90;99.90;;;;;;4940402;28;20619;-83
2022/11/26 07:50:34;;;;;;;0.70;0.70;;;6.00;99.90;;;;;;4958007;28;20823;-83
2022/11/26 07:53:00;;;;;;;0.70;0.70;;;5.90;99.90;;;;;;4945752;28;20130;-82
2022/11/26 07:55:26;;;;;;;0.70;0.70;;;5.90;99.90;;;;;;4939950;28;20490;-84
2022/11/26 07:57:52;;;;;;;0.70;0.70;;;6.00;99.90;;;;;;4954709;28;20290;-83
2022/11/26 08:00:18;;;;;;;0.68;0.68;;;6.10;99.90;;;;;;4961543;28;20052;-82
2022/11/26 08:02:47;;;;;;;0.70;0.70;;;6.20;99.90;;;;;;4938433;28;20150;-83
2022/11/26 08:05:15;;;;;;;0.70;0.70;;;6.20;99.90;;;;;;4940757;28;20387;-83
2022/11/26 08:07:41;;;;;;;0.70;0.70;;;6.20;99.90;;;;;;4953520;28;20051;-84
2022/11/26 08:10:07;;;;;;;0.63;0.63;;;6.20;99.90;;;;;;4963938;28;20056;-82
2022/11/26 08:12:33;;;;;;;0.60;0.60;;;6.30;99.90;;;;;;4975902;28;20640;-83
2022/11/26 08:14:59;;;;;;;0.60;0.60;;;6.30;99.90;;;;;;4958346;28;20058;-83
2022/11/26 08:17:28;;;;;;;0.60;0.60;;;6.40;99.90;;;;;;4931779;28;20421;-85
2022/11/26 08:19:53;;;;;;;0.70;0.70;;;6.30;99.90;;;;;;4934142;28;20044;-87
2022/11/26 08:22:19;;;;;;;0.60;0.60;;;6.40;99.90;;;;;;4944046;28;20371;-83
2022/11/26 08:24:45;;;;;;;0.63;0.63;;;6.40;99.90;;;;;;4965447;28;20371;-83
2022/11/26 08:27:11;;;;;;;0.70;0.70;;;6.50;99.90;;;;;;4960500;28;20504;-83
2022/11/26 08:29:37;;;;;;;0.70;0.70;;;6.40;99.90;;;;;;4963011;28;20048;-84
2022/11/26 08:32:03;;;;;;;0.70;0.70;;;6.50;99.90;;;;;;4942813;28;20049;-83
2022/11/26 08:34:28;;;;;;;0.70;0.70;;;6.50;99.90;;;;;;4959073;28;20309;-84
2022/11/26 08:36:55;;;;;;;0.70;0.70;;;6.60;99.90;;;;;;4942529;28;20442;-84
2022/11/26 08:39:23;;;;;;;0.70;0.70;;;6.70;99.90;;;;;;4956667;28;20055;-83
2022/11/26 08:41:49;;;;;;;0.70;0.70;;;6.70;99.90;;;;;;4945873;28;20060;-85
2022/11/26 08:44:15;;;;;;;0.70;0.70;;;6.70;99.90;;;;;;4959321;28;20212;-83
2022/11/26 08:46:41;;;;;;;0.70;0.70;;;6.80;99.90;;;;;;4953366;28;20472;-84
2022/11/26 08:49:15;;;;;;;0.70;0.70;;;6.70;99.90;;;;;;4959811;28;20063;-83
2022/11/26 08:51:42;;;;;;;0.70;0.70;;;6.90;99.90;;;;;;4968646;28;20450;-83
2022/11/26 08:54:08;;;;;;;0.70;0.70;;;6.90;99.90;;;;;;4961764;28;20145;-83
2022/11/26 08:56:34;;;;;;;0.73;0.73;;;6.90;99.90;;;;;;4980531;28;20048;-82
2022/11/26 08:59:00;;;;;;;0.70;0.70;;;7.00;99.90;;;;;;4968077;28;20048;-83
2022/11/26 09:01:29;;;;;;;0.70;0.70;;;6.90;99.90;;;;;;4958833;28;20182;-83
2022/11/26 09:03:57;;;;;;;0.70;0.70;;;7.00;99.90;;;;;;4985611;28;20083;-83
2022/11/26 09:06:24;;;;;;;0.70;0.70;;;7.00;99.90;;;;;;4976216;28;21154;-83
2022/11/26 09:11:39;;;;;;;0.70;0.70;;;7.10;99.90;;;;;;4979938;28;20626;-82
2022/11/26 09:14:05;;;;;;;0.70;0.70;;;7.20;99.90;;;;;;4989490;28;20067;-83
2022/11/26 09:16:31;;;;;;;0.80;0.80;;;7.10;99.90;;;;;;4954345;28;20056;-82
2022/11/26 09:19:03;;;;;;;0.70;0.70;;;7.20;99.90;;;;;;4947320;28;20048;-82
2022/11/26 09:21:28;;;;;;;0.70;0.70;;;7.20;99.90;;;;;;4947297;28;20052;-83
2022/11/26 09:23:54;;;;;;;0.70;0.70;;;7.30;99.90;;;;;;4961046;28;20076;-84
2022/11/26 09:26:21;;;;;;;0.70;0.70;;;7.30;99.90;;;;;;4946667;28;20077;-83
2022/11/26 09:28:50;;;;;;;0.70;0.70;;;7.40;99.90;;;;;;4952560;28;20535;-85
2022/11/26 09:31:17;;;;;;;0.70;0.70;;;7.40;99.90;;;;;;4954325;28;20729;-81
2022/11/26 09:33:43;;;;;;;0.70;0.70;;;7.50;99.90;;;;;;4965960;28;20057;-86
2022/11/26 09:36:12;;;;;;;0.70;0.70;;;7.50;99.90;;;;;;4957376;28;20053;-83
2022/11/26 09:38:38;;;;;;;0.70;0.70;;;7.50;99.90;;;;;;4970552;28;20044;-82
2022/11/26 09:41:38;;;;;;;0.70;0.70;;;7.50;99.90;;;;;;4964287;28;20051;-82
2022/11/26 09:44:24;;;;;;;0.70;0.70;;;7.50;99.90;;;;;;4953594;28;20201;-82
2022/11/26 09:47:05;;;;;;;0.70;0.70;;;7.50;99.90;;;;;;4969834;28;20055;-83
2022/11/26 09:49:52;;;;;;;0.70;0.70;;;7.60;99.90;;;;;;4964540;28;20055;-83
2022/11/26 09:52:19;;;;;;;0.70;0.70;;;7.60;99.90;;;;;;4973223;28;20036;-83
2022/11/26 09:54:47;;;;;;;0.70;0.70;;;7.60;99.90;;;;;;4945838;28;20487;-83
2022/11/26 09:57:40;;;;;;;0.70;0.70;;;7.60;99.90;;;;;;4962344;28;20321;-82
2022/11/26 10:00:21;;;;;;;0.80;0.80;;;7.70;99.90;;;;;;4940010;28;20529;-83
2022/11/26 10:02:47;;;;;;;0.70;0.70;;;7.80;99.90;;;;;;4945049;28;20449;-86
2022/11/26 10:05:12;;;;;;;0.70;0.70;;;7.70;99.90;;;;;;4959167;28;20809;-83
2022/11/26 10:08:02;;;;;;;0.65;0.65;;;7.70;99.90;;;;;;4953228;28;20049;-84
2022/11/26 10:10:31;;;;;;;0.70;0.70;;;7.80;99.90;;;;;;4940039;28;20064;-82
2022/11/26 10:13:06;;;;;;;0.70;0.70;;;7.80;99.90;;;;;;4965861;28;20037;-81
2022/11/26 10:15:47;;;;;;;0.60;0.60;;;7.90;99.90;;;;;;4935893;28;20636;-80
2022/11/26 10:18:31;;;;;;;0.68;0.68;;;7.90;99.90;;;;;;4963057;28;20070;-81
2022/11/26 10:21:32;;;;;;;0.70;0.70;;;7.90;99.90;;;;;;4958986;28;20892;-81
2022/11/26 10:24:04;;;;;;;0.70;0.70;;;7.90;99.90;;;;;;4949795;28;20972;-83
2022/11/26 10:26:38;;;;;;;0.70;0.70;;;8.00;99.90;;;;;;4961701;28;20901;-82
2022/11/26 10:29:38;;;;;;;0.70;0.70;;;8.00;99.90;;;;;;4958834;28;20048;-79
2022/11/26 10:32:33;;;;;;;0.70;0.70;;;8.10;99.90;;;;;;4939764;28;20821;-82
2022/11/26 10:34:59;;;;;;;0.70;0.70;;;8.00;99.90;;;;;;4952130;28;20567;-82
2022/11/26 10:37:29;;;;;;;0.60;0.60;;;8.10;99.90;;;;;;4945465;28;20048;-83
2022/11/26 10:39:59;;;;;;;0.68;0.68;;;8.10;99.90;;;;;;4937832;28;20071;-82
2022/11/26 10:42:24;;;;;;;0.63;0.63;;;8.10;99.90;;;;;;4944628;28;20369;-82
2022/11/26 10:44:52;;;;;;;0.70;0.70;;;8.20;99.90;;;;;;4965488;28;20488;-82
2022/11/26 10:47:28;;;;;;;0.60;0.60;;;8.20;99.90;;;;;;4959089;28;20044;-82
2022/11/26 10:50:03;;;;;;;0.60;0.60;;;8.30;99.90;;;;;;4958400;28;20779;-82
2022/11/26 10:52:32;;;;;;;0.70;0.70;;;8.30;99.90;;;;;;4946558;28;20348;-82
2022/11/26 10:55:07;;;;;;;0.60;0.60;;;8.50;99.90;;;;;;4920221;28;20155;-81
2022/11/26 10:57:39;;;;;;;0.70;0.70;;;8.40;99.90;;;;;;4933087;28;20055;-82
2022/11/26 11:00:06;;;;;;;0.60;0.60;;;8.50;99.90;;;;;;4969837;28;20656;-81
2022/11/26 11:02:38;;;;;;;0.70;0.70;;;8.50;99.90;;;;;;4967887;28;20241;-81
2022/11/26 11:05:06;;;;;;;0.60;0.60;;;8.50;99.90;;;;;;4965487;28;20386;-82
2022/11/26 11:07:35;;;;;;;0.70;0.70;;;8.60;99.90;;;;;;4963466;28;20697;-83
2022/11/26 11:10:07;;;;;;;0.70;0.70;;;8.60;99.90;;;;;;4965268;28;20118;-81
2022/11/26 11:12:54;;;;;;;0.70;0.70;;;8.70;99.90;;;;;;4969066;28;20056;-81
2022/11/26 11:15:32;;;;;;;0.70;0.70;;;8.70;99.90;;;;;;4943141;28;20315;-82
2022/11/26 11:18:20;;;;;;;0.70;0.70;;;8.80;99.90;;;;;;4938025;28;20114;-82
2022/11/26 11:20:57;;;;;;;0.60;0.60;;;8.80;99.90;;;;;;4940367;28;20704;-81
2022/11/26 11:23:25;;;;;;;0.70;0.70;;;9.00;99.90;;;;;;4963190;28;20127;-82
2022/11/26 11:26:04;;;;;;;0.70;0.70;;;9.00;99.90;;;;;;4934396;28;20406;-81
2022/11/26 11:28:32;;;;;;;0.70;0.70;;;9.00;99.90;;;;;;4940950;28;20587;-81
2022/11/26 11:31:11;;;;;;;0.70;0.70;;;9.00;99.90;;;;;;4949441;28;20060;-83
2022/11/26 11:33:37;;;;;;;0.60;0.60;;;9.10;99.90;;;;;;4949034;28;20095;-81
2022/11/26 11:36:16;;;;;;;0.63;0.63;;;9.10;99.90;;;;;;4948393;28;20091;-82
2022/11/26 11:38:49;;;;;;;0.60;0.60;;;9.10;99.90;;;;;;4946460;28;20850;-81
2022/11/26 11:41:24;;;;;;;0.60;0.60;;;9.10;99.90;;;;;;4948209;28;20498;-82
2022/11/26 11:44:18;;;;;;;0.60;0.60;;;9.10;99.90;;;;;;4933642;28;20041;-82
2022/11/26 11:46:55;;;;;;;0.60;0.60;;;9.20;99.90;;;;;;4889044;28;20824;-81
2022/11/26 11:49:50;;;;;;;0.60;0.60;;;9.30;99.90;;;;;;4932781;28;20048;-81
2022/11/26 11:52:43;;;;;;;0.60;0.60;;;9.40;99.90;;;;;;4954223;28;20493;-83
2022/11/26 11:55:09;;;;;;;0.60;0.60;;;9.30;99.90;;;;;;4940466;28;20060;-81
2022/11/26 11:57:55;;;;;;;0.60;0.60;;;9.30;99.90;;;;;;4937778;28;20478;-82
2022/11/26 12:00:26;;;;;;;0.60;0.60;;;9.50;99.90;;;;;;4939551;28;20049;-82
2022/11/26 12:02:52;;;;;;;0.60;0.60;;;9.40;99.90;;;;;;4956029;28;20055;-80
2022/11/26 12:05:58;;;;;;;0.60;0.60;;;9.50;99.90;;;;;;4939685;28;20072;-81
2022/11/26 12:09:14;;;;;;;0.60;0.60;;;9.40;99.90;;;;;;4954216;28;20045;-82
2022/11/26 12:12:20;;;;;;;0.60;0.60;;;9.50;99.90;;;;;;4874537;28;20580;-82
2022/11/26 12:15:03;;;;;;;0.60;0.60;;;9.60;99.90;;;;;;4921842;28;20443;-79
2022/11/26 12:17:48;;;;;;;0.60;0.60;;;9.50;99.90;;;;;;4937422;28;20491;-81
2022/11/26 12:20:35;;;;;;;0.60;0.60;;;9.50;99.90;;;;;;4937266;28;20978;-81
2022/11/26 12:23:25;;;;;;;0.60;0.60;;;9.50;99.90;;;;;;4916809;28;20052;-80
2022/11/26 12:26:09;;;;;;;0.60;0.60;;;9.50;99.90;;;;;;4939113;28;20051;-81
2022/11/26 12:28:56;;;;;;;0.60;0.60;;;9.50;99.90;;;;;;4938336;28;20701;-80
2022/11/26 12:31:26;;;;;;;0.60;0.60;;;9.50;99.90;;;;;;4940525;28;20049;-81
2022/11/26 12:33:59;;;;;;;0.60;0.60;;;9.40;99.90;;;;;;4918733;28;20514;-81
2022/11/26 12:36:39;;;;;;;0.60;0.60;;;9.40;99.90;;;;;;4961632;28;20787;-81
2022/11/26 12:39:17;;;;;;;0.60;0.60;;;9.50;99.90;;;;;;4937493;28;20510;-81
2022/11/26 12:41:54;;;;;;;0.60;0.60;;;9.40;99.90;;;;;;4941668;28;20696;-81
2022/11/26 12:44:39;;;;;;;0.60;0.60;;;9.40;99.90;;;;;;4935319;28;20055;-81
2022/11/26 12:47:11;;;;;;;0.60;0.60;;;9.40;99.90;;;;;;4937990;28;20577;-80
2022/11/26 12:50:00;;;;;;;0.60;0.60;;;9.30;99.90;;;;;;4951986;28;20513;-82
2022/11/26 12:52:47;;;;;;;0.60;0.60;;;9.30;99.90;;;;;;4923437;28;20052;-82
2022/11/26 12:55:20;;;;;;;0.60;0.60;;;9.40;99.90;;;;;;4943983;28;20049;-80
2022/11/26 12:58:08;;;;;;;0.60;0.60;;;9.40;99.90;;;;;;4923804;28;20036;-80
2022/11/26 13:00:35;;;;;;;0.60;0.60;;;9.40;99.90;;;;;;4938596;28;20857;-80
2022/11/26 13:03:02;;;;;;;0.60;0.60;;;9.40;99.90;;;;;;4943505;28;20142;-81
2022/11/26 13:05:36;;;;;;;0.60;0.60;;;9.50;99.90;;;;;;4921911;28;20490;-80
2022/11/26 13:08:16;;;;;;;0.60;0.60;;;9.40;99.90;;;;;;4939714;28;20064;-81
2022/11/26 13:11:24;;;;;;;0.60;0.60;;;9.50;99.90;;;;;;4965906;28;20059;-83
2022/11/26 13:13:59;;;;;;;0.60;0.60;;;9.50;99.90;;;;;;4936287;28;20512;-81
2022/11/26 13:16:47;;;;;;;0.60;0.60;;;9.50;99.90;;;;;;4937965;28;20083;-81
2022/11/26 13:19:31;;;;;;;0.60;0.60;;;9.50;99.90;;;;;;4981680;28;20052;-80